Time;durP1;ratioP1;P1;durP2;ratioP2;P2;SDS_P1;SDS_P2;PMS_P1;PMS_P2;Temp;Humidity;BMP_temperature;BMP_pressure;BME280_temperature;BME280_humidity;BME280_pressure;Samples;Min_cycle;Max_cycle;Signal;HPM_P1;HPM_P2
2022/02/05 00:01:16;;;;;;;0.13;0.13;;;;;;;3.28;91.03;100043.16;5061143;28;20675;-74
2022/02/05 00:03:47;;;;;;;0.33;0.13;;;;;;;3.23;93.71;100056.88;5052819;28;20206;-73
2022/02/05 00:06:18;;;;;;;0.47;0.20;;;;;;;3.16;96.75;100050.06;5057753;28;20210;-74
2022/02/05 00:08:56;;;;;;;0.33;0.20;;;;;;;3.09;99.64;100066.41;5055739;28;20299;-74
2022/02/05 00:14:54;;;;;;;0.20;0.20;;;;;;;2.94;100.00;100067.34;5120854;27;20673;-77
2022/02/05 00:39:31;;;;;;;0.30;0.30;;;;;;;2.63;99.31;100148.94;5116273;27;20650;-77
2022/02/05 00:42:09;;;;;;;0.30;0.30;;;;;;;2.62;99.78;100160.97;5118855;27;20196;-78
2022/02/05 00:44:35;;;;;;;0.17;0.17;;;;;;;2.60;100.00;100159.25;5113952;27;20283;-78
2022/02/05 00:47:03;;;;;;;0.40;0.37;;;;;;;2.54;100.00;100172.13;5116270;27;20704;-78
2022/02/05 00:49:30;;;;;;;0.83;0.50;;;;;;;2.49;100.00;100172.13;5111938;27;20217;-77
2022/02/05 00:52:04;;;;;;;2.53;0.50;;;;;;;2.44;100.00;100173.84;5115015;27;20580;-77
2022/02/05 00:54:30;;;;;;;1.30;0.67;;;;;;;2.37;100.00;100162.69;5117239;27;20196;-77
2022/02/05 00:57:19;;;;;;;0.63;0.63;;;;;;;2.35;100.00;100166.97;5114749;27;20239;-78
2022/02/05 00:59:46;;;;;;;0.60;0.60;;;;;;;2.33;100.00;100173.84;5116269;27;20479;-77
2022/02/05 01:02:14;;;;;;;0.87;0.67;;;;;;;2.34;100.00;100179.84;5117488;27;20197;-77
2022/02/05 01:04:40;;;;;;;0.93;0.73;;;;;;;2.32;100.00;100178.97;5120694;27;20699;-77
2022/02/05 01:07:06;;;;;;;0.40;0.40;;;;;;;2.31;100.00;100182.44;5114858;27;20247;-77
2022/02/05 01:09:33;;;;;;;0.50;0.50;;;;;;;2.31;100.00;100193.56;5119887;27;20213;-77
2022/02/05 01:12:01;;;;;;;0.73;0.67;;;;;;;2.30;100.00;100201.28;5115272;27;20301;-77
2022/02/05 01:14:32;;;;;;;1.00;0.90;;;;;;;2.29;100.00;100203.00;5119896;27;20228;-78
2022/02/05 01:17:03;;;;;;;2.53;0.80;;;;;;;2.30;100.00;100211.56;5116671;27;20283;-78
2022/02/05 01:22:17;;;;;;;0.90;0.80;;;;;;;2.26;100.00;100206.41;5112740;27;20219;-77
2022/02/05 01:24:46;;;;;;;1.30;1.03;;;;;;;2.23;100.00;100223.56;5111503;27;20420;-77
2022/02/05 01:27:16;;;;;;;1.70;1.10;;;;;;;2.27;100.00;100228.72;5101653;27;20601;-77
2022/02/05 01:29:58;;;;;;;1.47;1.23;;;;;;;2.27;100.00;100228.72;5103740;28;20213;-77
2022/02/05 01:32:28;;;;;;;3.23;1.30;;;;;;;2.26;100.00;100245.00;5102974;27;20205;-78
2022/02/05 01:35:02;;;;;;;2.27;1.50;;;;;;;2.25;100.00;100255.28;5103889;27;20199;-77
2022/02/05 01:51:35;;;;;;;3.53;1.50;;;;;;;2.05;100.00;100262.97;5099900;27;20209;-77
2022/02/05 01:54:27;;;;;;;3.57;1.70;;;;;;;2.04;100.00;100263.81;5104758;27;20232;-78
2022/02/05 01:56:58;;;;;;;2.50;1.73;;;;;;;2.04;100.00;100262.13;5100112;27;21316;-77
2022/02/05 01:59:37;;;;;;;2.67;1.60;;;;;;;2.01;100.00;100268.97;5100948;28;20225;-78
2022/02/05 02:05:03;;;;;;;5.23;1.70;;;;;;;2.08;100.00;100273.28;5076342;28;20213;-78
2022/02/05 02:15:52;;;;;;;2.73;1.90;;;;;;;2.11;100.00;100298.13;5097661;28;20915;-78
2022/02/05 02:18:29;;;;;;;3.47;2.10;;;;;;;2.13;100.00;100301.56;5103853;28;20233;-78
2022/02/05 02:21:10;;;;;;;4.30;2.27;;;;;;;2.18;100.00;100310.16;5100767;27;20225;-79
2022/02/05 02:23:52;;;;;;;3.80;2.10;;;;;;;2.22;100.00;100306.75;5099577;28;20197;-78
2022/02/05 02:26:29;;;;;;;3.90;2.37;;;;;;;2.24;100.00;100312.75;5101000;28;20300;-78
2022/02/05 02:29:01;;;;;;;3.17;2.10;;;;;;;2.25;100.00;100317.91;5098630;27;20208;-78
2022/02/05 02:31:32;;;;;;;2.67;2.00;;;;;;;2.26;100.00;100321.34;5103173;28;20614;-77
2022/02/05 02:34:01;;;;;;;3.23;1.90;;;;;;;2.28;100.00;100319.63;5102666;28;20236;-78
2022/02/05 02:36:33;;;;;;;3.23;1.90;;;;;;;2.30;100.00;100335.91;5101127;28;20202;-78
2022/02/05 02:39:07;;;;;;;3.47;1.80;;;;;;;2.31;100.00;100337.66;5099671;27;20236;-78
2022/02/05 02:41:41;;;;;;;2.97;1.70;;;;;;;2.34;100.00;100349.66;5100050;27;20213;-78
2022/02/05 02:44:07;;;;;;;6.80;2.00;;;;;;;2.35;100.00;100348.81;5102022;27;20228;-78
2022/02/05 02:46:34;;;;;;;5.80;2.10;;;;;;;2.34;100.00;100352.22;5104148;28;20204;-78
2022/02/05 02:49:02;;;;;;;3.30;1.57;;;;;;;2.37;100.00;100357.38;5099365;28;20222;-78
2022/02/05 02:57:20;;;;;;;4.43;2.00;;;;;;;2.41;100.00;100366.81;5055510;28;20741;-78
2022/02/05 02:59:56;;;;;;;2.13;1.53;;;;;;;2.41;100.00;100380.56;5054367;28;20884;-78
2022/02/05 03:02:25;;;;;;;6.97;1.60;;;;;;;2.40;100.00;100386.56;5081382;27;20598;-79
2022/02/05 03:04:54;;;;;;;3.27;1.70;;;;;;;2.42;100.00;100386.56;5098400;28;20215;-77
2022/02/05 03:07:21;;;;;;;4.03;1.40;;;;;;;2.40;100.00;100386.56;5101374;27;20578;-77
2022/02/05 03:09:49;;;;;;;3.27;1.33;;;;;;;2.39;100.00;100390.00;5101303;28;20476;-78
2022/02/05 03:12:15;;;;;;;3.30;1.20;;;;;;;2.37;100.00;100396.81;5103686;27;20201;-78
2022/02/05 03:14:42;;;;;;;5.20;1.47;;;;;;;2.38;100.00;100397.72;5098998;27;20300;-78
2022/02/05 03:17:19;;;;;;;4.53;1.40;;;;;;;2.37;100.00;100399.41;5102320;27;20213;-78
2022/02/05 03:19:47;;;;;;;7.87;1.67;;;;;;;2.40;100.00;100407.13;5097199;28;20307;-77
2022/02/05 03:22:15;;;;;;;3.57;1.33;;;;;;;2.40;100.00;100412.28;5102372;27;20255;-78
2022/02/05 03:24:42;;;;;;;5.27;1.43;;;;;;;2.41;100.00;100408.88;5100824;27;20194;-78
2022/02/05 03:27:11;;;;;;;4.50;1.40;;;;;;;2.36;100.00;100402.84;5101178;27;20197;-78
2022/02/05 03:29:39;;;;;;;3.80;1.77;;;;;;;2.38;100.00;100421.72;5100434;27;20224;-78
2022/02/05 03:32:06;;;;;;;5.97;2.70;;;;;;;2.38;100.00;100411.44;5099728;27;20783;-78
2022/02/05 03:34:32;;;;;;;3.00;1.40;;;;;;;2.37;100.00;100416.56;5101718;28;20722;-77
2022/02/05 03:37:00;;;;;;;1.67;1.10;;;;;;;2.38;100.00;100423.44;5099860;27;20208;-78
2022/02/05 03:39:26;;;;;;;4.80;1.63;;;;;;;2.39;100.00;100420.00;5101852;28;20222;-78
2022/02/05 03:41:53;;;;;;;3.77;1.43;;;;;;;2.44;99.43;100436.31;5101534;28;20193;-78
2022/02/05 03:44:21;;;;;;;5.73;1.33;;;;;;;2.41;99.80;100428.56;5102808;27;20679;-78
2022/02/05 03:46:49;;;;;;;4.80;1.70;;;;;;;2.41;99.45;100439.75;5099893;27;20208;-77
2022/02/05 03:49:17;;;;;;;4.97;1.63;;;;;;;2.40;98.79;100444.91;5101072;28;20221;-78
2022/02/05 03:51:44;;;;;;;3.27;1.50;;;;;;;2.41;97.97;100444.91;5096239;28;20235;-78
2022/02/05 03:54:10;;;;;;;6.90;1.50;;;;;;;2.40;98.43;100440.59;5100716;28;20220;-77
2022/02/05 03:56:36;;;;;;;2.97;1.53;;;;;;;2.37;98.11;100439.72;5098181;27;20198;-78
2022/02/05 03:59:03;;;;;;;5.70;1.60;;;;;;;2.26;98.30;100440.53;5097750;28;20222;-77
2022/02/05 04:01:31;;;;;;;4.23;1.67;;;;;;;2.23;98.67;100437.06;5098274;28;20583;-77
2022/02/05 04:03:57;;;;;;;6.57;1.67;;;;;;;2.21;99.32;100436.22;5098954;28;20461;-77
2022/02/05 04:06:24;;;;;;;8.90;1.57;;;;;;;2.24;99.05;100438.81;5098716;27;20224;-77
2022/02/05 04:08:52;;;;;;;4.27;1.70;;;;;;;2.30;99.63;100448.28;5095033;28;20200;-77
2022/02/05 04:11:31;;;;;;;4.83;1.80;;;;;;;2.30;100.00;100440.56;5098446;28;20751;-77
2022/02/05 04:16:42;;;;;;;3.67;1.70;;;;;;;2.39;99.83;100462.06;5097710;28;20205;-77
2022/02/05 04:19:09;;;;;;;7.70;1.57;;;;;;;2.40;99.30;100456.03;5101476;27;20696;-77
2022/02/05 04:21:35;;;;;;;3.27;1.33;;;;;;;2.45;98.93;100461.22;5095216;28;20625;-78
2022/02/05 04:24:02;;;;;;;2.43;1.67;;;;;;;2.45;98.72;100462.06;5102763;28;20197;-78
2022/02/05 04:26:30;;;;;;;2.73;1.47;;;;;;;2.44;98.90;100464.63;5097688;28;20197;-78
2022/02/05 04:28:56;;;;;;;3.93;1.60;;;;;;;2.45;98.78;100471.50;5098820;28;20190;-78
2022/02/05 04:31:23;;;;;;;2.63;1.23;;;;;;;2.42;98.07;100466.34;5097857;28;20216;-78
2022/02/05 04:33:50;;;;;;;3.67;1.37;;;;;;;2.35;97.89;100478.31;5100009;28;20213;-78
2022/02/05 04:36:18;;;;;;;4.13;1.17;;;;;;;2.27;98.05;100473.13;5097297;28;20221;-78
2022/02/05 04:38:47;;;;;;;3.77;1.10;;;;;;;2.17;99.04;100484.22;5102644;28;20193;-78
2022/02/05 04:41:19;;;;;;;4.03;1.27;;;;;;;2.11;99.07;100484.19;5099201;28;20301;-78
2022/02/05 04:54:59;;;;;;;1.77;1.13;;;;;;;2.18;99.42;100500.50;5069777;28;20776;-78
2022/02/05 04:57:39;;;;;;;7.57;1.47;;;;;;;2.15;99.08;100498.78;5099626;28;20216;-77
2022/02/05 05:00:17;;;;;;;2.80;1.20;;;;;;;2.14;99.11;100509.06;5096411;27;20584;-77
2022/02/05 05:02:58;;;;;;;8.40;1.50;;;;;;;2.08;99.37;100503.03;5104517;27;20201;-78
2022/02/05 05:05:43;;;;;;;3.33;1.37;;;;;;;2.04;99.57;100501.28;5098590;27;20635;-77
2022/02/05 05:08:31;;;;;;;2.50;1.30;;;;;;;2.00;100.00;100507.25;5097722;28;20202;-77
2022/02/05 05:22:02;;;;;;;2.87;1.40;;;;;;;1.81;100.00;100503.69;5092404;27;20224;-78
2022/02/05 05:24:29;;;;;;;5.73;1.60;;;;;;;1.87;100.00;100497.75;5099906;27;20201;-78
2022/02/05 05:26:56;;;;;;;6.67;2.20;;;;;;;1.87;100.00;100496.03;5105842;27;20198;-77
2022/02/05 05:29:23;;;;;;;3.10;1.90;;;;;;;1.90;100.00;100510.63;5100614;28;20225;-78
2022/02/05 05:31:49;;;;;;;7.03;1.70;;;;;;;1.89;100.00;100521.75;5103521;28;20291;-77
2022/02/05 05:34:16;;;;;;;3.53;1.90;;;;;;;1.89;100.00;100520.03;5100922;27;20209;-77
2022/02/05 05:36:42;;;;;;;4.10;2.27;;;;;;;1.91;100.00;100508.91;5101400;27;20202;-77
2022/02/05 05:39:12;;;;;;;2.83;1.73;;;;;;;1.91;100.00;100509.75;5100128;27;20693;-78
2022/02/05 05:41:39;;;;;;;5.47;2.20;;;;;;;1.90;100.00;100508.06;5099946;27;20207;-78
2022/02/05 05:44:24;;;;;;;6.63;1.80;;;;;;;1.94;100.00;100524.38;5101665;27;20213;-78
2022/02/05 05:46:53;;;;;;;4.60;2.00;;;;;;;1.93;100.00;100517.50;5099838;27;20225;-77
2022/02/05 05:49:22;;;;;;;8.23;2.20;;;;;;;1.96;100.00;100514.94;5102459;27;20282;-77
2022/02/05 05:51:48;;;;;;;4.13;1.80;;;;;;;1.98;100.00;100513.25;5103465;27;20297;-77
2022/02/05 05:54:16;;;;;;;4.47;2.00;;;;;;;2.00;100.00;100520.09;5104196;28;20266;-77
2022/02/05 05:56:45;;;;;;;4.93;2.33;;;;;;;2.01;100.00;100523.56;5102160;27;20207;-77
2022/02/05 05:59:13;;;;;;;9.17;2.40;;;;;;;2.04;100.00;100532.16;5102029;28;20228;-77
2022/02/05 06:01:39;;;;;;;4.30;2.40;;;;;;;2.03;100.00;100538.13;5100377;27;20208;-78
2022/02/05 06:04:05;;;;;;;6.60;2.60;;;;;;;2.07;100.00;100536.44;5096893;27;20192;-78
2022/02/05 06:06:32;;;;;;;5.57;2.10;;;;;;;2.08;100.00;100543.31;5096946;28;20205;-78
2022/02/05 06:08:58;;;;;;;5.33;2.40;;;;;;;2.07;100.00;100542.44;5097569;27;20226;-77
2022/02/05 06:11:27;;;;;;;6.23;2.47;;;;;;;2.08;100.00;100551.91;5099829;28;20201;-77
2022/02/05 06:13:53;;;;;;;6.43;2.30;;;;;;;2.09;100.00;100552.75;5099368;28;21289;-77
2022/02/05 06:16:27;;;;;;;4.70;2.67;;;;;;;2.09;100.00;100552.75;5102418;27;20210;-78
2022/02/05 06:18:53;;;;;;;4.07;2.53;;;;;;;2.08;100.00;100557.03;5103785;27;20209;-77
2022/02/05 06:21:20;;;;;;;3.53;2.30;;;;;;;2.08;100.00;100558.75;5101744;27;20221;-78
2022/02/05 06:23:46;;;;;;;5.97;2.70;;;;;;;2.09;100.00;100557.91;5102654;28;20191;-77
2022/02/05 06:26:13;;;;;;;4.40;2.77;;;;;;;2.11;100.00;100563.06;5061502;22;20232;-74
2022/02/05 06:28:40;;;;;;;6.57;3.03;;;;;;;2.12;100.00;100570.78;5029072;28;20216;-75
2022/02/05 06:31:07;;;;;;;3.93;2.80;;;;;;;2.14;100.00;100568.22;5028577;28;20195;-74
2022/02/05 06:33:33;;;;;;;4.30;2.80;;;;;;;2.11;100.00;100566.50;5030192;28;20657;-74
2022/02/05 06:36:00;;;;;;;6.60;2.80;;;;;;;2.11;100.00;100574.22;5027039;28;20226;-74
2022/02/05 06:38:26;;;;;;;4.47;2.87;;;;;;;2.08;100.00;100572.47;5024965;28;20223;-73
2022/02/05 06:40:53;;;;;;;4.57;2.70;;;;;;;2.10;100.00;100574.22;5024352;28;20202;-74
2022/02/05 06:43:20;;;;;;;6.27;2.90;;;;;;;2.11;100.00;100588.78;5026342;28;20302;-74
2022/02/05 06:45:48;;;;;;;7.50;2.80;;;;;;;2.12;100.00;100604.22;5021729;28;20680;-74
2022/02/05 06:48:14;;;;;;;5.80;3.40;;;;;;;2.11;100.00;100596.50;5025530;28;20227;-74
2022/02/05 06:50:41;;;;;;;6.30;3.10;;;;;;;2.10;100.00;100610.22;5022462;28;20214;-74
2022/02/05 06:53:07;;;;;;;5.27;2.60;;;;;;;2.10;100.00;100608.50;5027677;28;20195;-75
2022/02/05 06:55:35;;;;;;;5.73;2.73;;;;;;;2.10;100.00;100617.94;5020901;28;20577;-75
2022/02/05 06:58:01;;;;;;;3.90;2.40;;;;;;;2.11;100.00;100615.38;5019878;28;20246;-72
2022/02/05 07:00:30;;;;;;;2.80;2.53;;;;;;;2.10;100.00;100621.34;5028716;28;20565;-74
2022/02/05 07:02:58;;;;;;;4.43;2.80;;;;;;;2.07;100.00;100624.75;5026934;28;20204;-74
2022/02/05 07:05:24;;;;;;;5.93;2.73;;;;;;;2.08;100.00;100623.06;5019785;28;20230;-73
2022/02/05 07:07:51;;;;;;;5.63;2.93;;;;;;;2.07;100.00;100621.31;5024763;28;20223;-73
2022/02/05 07:10:17;;;;;;;4.27;2.60;;;;;;;2.04;100.00;100622.19;5019764;28;20213;-74
2022/02/05 07:12:59;;;;;;;4.00;2.63;;;;;;;2.03;100.00;100622.16;5025343;28;20233;-74
2022/02/05 07:15:29;;;;;;;3.57;2.40;;;;;;;2.02;100.00;100639.31;5023529;28;20236;-74
2022/02/05 07:18:07;;;;;;;5.27;2.20;;;;;;;2.03;100.00;100640.16;5026754;28;20644;-74
2022/02/05 07:20:39;;;;;;;7.50;2.50;;;;;;;1.99;100.00;100628.13;5021536;28;20195;-74
2022/02/05 07:31:24;;;;;;;5.10;2.50;;;;;;;1.92;100.00;100637.50;5023559;28;20223;-73
2022/02/05 07:33:50;;;;;;;6.83;2.47;;;;;;;1.89;100.00;100646.03;5024531;28;20292;-74
2022/02/05 07:36:18;;;;;;;4.17;2.67;;;;;;;1.87;100.00;100642.59;5025905;28;20386;-73
2022/02/05 07:38:46;;;;;;;4.93;2.57;;;;;;;1.83;100.00;100648.56;5025949;28;20235;-74
2022/02/05 07:41:12;;;;;;;5.60;2.70;;;;;;;1.83;100.00;100650.25;5027246;28;20683;-73
2022/02/05 07:43:39;;;;;;;7.27;2.70;;;;;;;1.84;100.00;100657.97;5021540;28;20203;-74
2022/02/05 07:46:08;;;;;;;7.37;2.73;;;;;;;1.89;100.00;100661.44;5023975;28;20728;-74
2022/02/05 07:48:35;;;;;;;6.93;2.40;;;;;;;1.94;100.00;100660.66;5023241;28;20251;-73
2022/02/05 07:51:01;;;;;;;8.20;2.40;;;;;;;2.02;100.00;100669.28;5029169;28;20602;-73
2022/02/05 07:53:30;;;;;;;5.67;2.53;;;;;;;2.14;100.00;100676.25;5023565;28;20196;-74
2022/02/05 07:55:58;;;;;;;5.33;2.70;;;;;;;2.20;100.00;100678.88;5023016;28;20682;-74
2022/02/05 07:58:24;;;;;;;6.10;2.57;;;;;;;2.20;100.00;100679.75;5023212;28;20211;-73
2022/02/05 08:00:52;;;;;;;7.30;3.00;;;;;;;2.18;100.00;100684.03;5025881;28;20200;-75
2022/02/05 08:03:18;;;;;;;4.87;2.17;;;;;;;2.21;100.00;100684.03;5023924;28;20203;-74
2022/02/05 08:05:45;;;;;;;6.00;2.33;;;;;;;2.24;100.00;100684.06;5025522;28;20196;-74
2022/02/05 08:08:15;;;;;;;3.93;2.60;;;;;;;2.28;100.00;100685.81;5024482;28;20230;-75
2022/02/05 08:10:50;;;;;;;4.33;2.13;;;;;;;2.32;100.00;100691.84;5028415;28;20469;-75
2022/02/05 08:13:18;;;;;;;3.77;2.10;;;;;;;2.35;100.00;100698.75;5020565;28;20207;-74
2022/02/05 08:15:51;;;;;;;5.27;2.33;;;;;;;2.37;100.00;100708.19;5024414;28;20223;-74
2022/02/05 08:18:18;;;;;;;3.63;2.20;;;;;;;2.39;99.70;100710.78;5027187;28;20220;-74
2022/02/05 08:20:44;;;;;;;3.53;1.80;;;;;;;2.38;98.03;100707.38;5025831;28;20192;-74
2022/02/05 08:23:11;;;;;;;4.43;1.80;;;;;;;2.43;98.91;100709.97;5021280;28;20211;-74
2022/02/05 08:25:37;;;;;;;3.10;1.50;;;;;;;2.46;99.29;100712.56;5021733;28;20867;-74
2022/02/05 08:28:06;;;;;;;3.73;1.80;;;;;;;2.43;99.59;100726.28;5020890;28;20216;-73
2022/02/05 08:30:34;;;;;;;2.50;1.40;;;;;;;2.37;99.40;100733.06;5021498;28;20196;-75
2022/02/05 08:33:02;;;;;;;2.77;1.47;;;;;;;2.32;99.51;100730.44;5023181;28;20677;-73
2022/02/05 08:35:32;;;;;;;2.23;1.27;;;;;;;2.25;100.00;100726.97;5020280;28;20286;-74
2022/02/05 08:38:00;;;;;;;3.07;1.50;;;;;;;2.24;100.00;100735.53;5028633;28;20208;-74
2022/02/05 08:40:26;;;;;;;1.87;1.30;;;;;;;2.19;100.00;100737.19;5027717;28;20196;-74
2022/02/05 08:42:58;;;;;;;2.27;1.40;;;;;;;2.15;100.00;100742.31;5024378;28;20196;-74
2022/02/05 08:45:25;;;;;;;3.13;2.40;;;;;;;2.16;100.00;100741.44;5029875;28;20285;-74
2022/02/05 08:47:53;;;;;;;3.07;2.70;;;;;;;2.19;100.00;100749.22;5040114;28;20262;-74
2022/02/05 08:50:23;;;;;;;2.93;2.30;;;;;;;2.15;100.00;100739.75;5027130;28;20195;-74
2022/02/05 08:52:53;;;;;;;4.43;2.23;;;;;;;2.17;100.00;100744.03;5026253;28;20299;-74
2022/02/05 08:55:20;;;;;;;1.93;1.50;;;;;;;2.23;100.00;100735.50;5031431;28;20277;-74
2022/02/05 08:57:48;;;;;;;5.90;2.63;;;;;;;2.26;100.00;100749.28;5024716;28;20246;-73
2022/02/05 09:00:23;;;;;;;2.80;1.90;;;;;;;2.25;100.00;100744.09;5035765;28;20232;-74
2022/02/05 09:02:57;;;;;;;3.67;2.70;;;;;;;2.28;100.00;100745.00;5031330;28;20195;-75
2022/02/05 09:05:36;;;;;;;3.03;2.00;;;;;;;2.44;100.00;100747.72;5026529;28;20196;-74
2022/02/05 09:08:10;;;;;;;4.70;2.20;;;;;;;2.43;100.00;100751.16;5024347;28;20192;-74
2022/02/05 09:10:50;;;;;;;2.33;2.00;;;;;;;2.32;100.00;100748.47;5023941;28;20208;-74
2022/02/05 09:13:37;;;;;;;5.10;2.40;;;;;;;2.27;100.00;100761.31;5040650;28;20206;-74
2022/02/05 09:16:05;;;;;;;6.43;2.50;;;;;;;2.32;100.00;100760.47;5025369;28;20223;-73
2022/02/05 09:18:33;;;;;;;5.40;2.40;;;;;;;2.47;100.00;100761.47;5026524;28;20967;-74
2022/02/05 09:21:00;;;;;;;4.43;2.50;;;;;;;2.53;100.00;100767.53;5022219;28;20242;-73
2022/02/05 09:23:26;;;;;;;5.20;2.27;;;;;;;2.61;100.00;100773.63;5026808;28;20565;-74
2022/02/05 09:25:53;;;;;;;4.60;2.70;;;;;;;2.64;100.00;100782.25;5027423;28;20196;-74
2022/02/05 09:28:21;;;;;;;3.73;2.67;;;;;;;2.71;100.00;100790.00;5029226;28;20215;-74
2022/02/05 09:30:50;;;;;;;5.67;3.47;;;;;;;2.61;100.00;100789.06;5025238;28;20242;-74
2022/02/05 09:33:17;;;;;;;6.07;3.00;;;;;;;2.51;100.00;100794.97;5030306;28;20203;-74
2022/02/05 09:35:45;;;;;;;3.57;2.80;;;;;;;2.45;100.00;100788.91;5028062;28;20220;-75
2022/02/05 09:38:11;;;;;;;5.77;3.23;;;;;;;2.43;100.00;100793.19;5022677;28;20225;-75
2022/02/05 09:40:38;;;;;;;6.63;3.03;;;;;;;2.38;100.00;100787.13;5024549;28;20207;-74
2022/02/05 09:43:04;;;;;;;4.53;2.60;;;;;;;2.38;100.00;100794.84;5025235;28;20204;-75
2022/02/05 09:45:35;;;;;;;6.67;2.80;;;;;;;2.45;100.00;100804.38;5028420;28;20228;-74
2022/02/05 09:48:01;;;;;;;4.53;2.33;;;;;;;2.45;100.00;100794.06;5024409;28;20751;-73
2022/02/05 09:50:28;;;;;;;5.33;2.60;;;;;;;2.46;100.00;100794.91;5023138;28;20199;-73
2022/02/05 09:53:01;;;;;;;3.63;2.83;;;;;;;2.55;100.00;100794.16;5024411;28;20201;-74
2022/02/05 09:55:28;;;;;;;5.67;3.43;;;;;;;2.64;100.00;100802.84;5031075;28;20295;-74
2022/02/05 09:57:54;;;;;;;9.67;4.90;;;;;;;2.62;100.00;100801.06;5027826;28;20215;-75
2022/02/05 10:00:22;;;;;;;5.70;3.80;;;;;;;2.67;100.00;100804.56;5026396;28;20271;-75
2022/02/05 10:02:55;;;;;;;5.00;3.47;;;;;;;2.78;100.00;100820.09;5027538;28;20331;-74
2022/02/05 10:05:29;;;;;;;8.53;4.10;;;;;;;2.86;100.00;100812.47;5024381;28;20196;-75
2022/02/05 10:07:58;;;;;;;4.80;3.30;;;;;;;2.93;100.00;100811.66;5029050;28;20203;-74
2022/02/05 10:10:37;;;;;;;6.20;2.70;;;;;;;2.97;100.00;100813.41;5028601;28;20577;-75
2022/02/05 10:13:08;;;;;;;7.17;2.80;;;;;;;2.98;100.00;100816.00;5021824;28;20266;-74
2022/02/05 10:15:36;;;;;;;6.00;3.53;;;;;;;2.94;100.00;100823.69;5026637;28;20244;-74
2022/02/05 10:18:03;;;;;;;4.43;2.97;;;;;;;3.00;100.00;100837.47;5025965;28;20658;-74
2022/02/05 10:20:33;;;;;;;4.90;3.00;;;;;;;3.00;100.00;100834.91;5041934;28;20748;-74
2022/02/05 10:23:09;;;;;;;7.17;3.43;;;;;;;3.17;100.00;100834.19;5021982;28;20235;-74
2022/02/05 10:25:36;;;;;;;7.73;2.87;;;;;;;3.27;100.00;100838.53;5024039;28;20207;-74
2022/02/05 10:28:09;;;;;;;6.00;3.00;;;;;;;3.32;99.21;100842.00;5026970;28;20593;-74
2022/02/05 10:30:36;;;;;;;3.23;2.20;;;;;;;3.29;97.66;100852.31;5024067;28;20203;-74
2022/02/05 10:33:08;;;;;;;4.77;2.40;;;;;;;3.52;97.83;100843.88;5030308;28;20790;-74
2022/02/05 10:35:43;;;;;;;4.10;2.30;;;;;;;3.58;96.81;100847.34;5024223;28;20215;-74
2022/02/05 10:38:33;;;;;;;6.50;2.50;;;;;;;3.55;96.17;100849.91;5022437;28;20731;-74
2022/02/05 10:43:45;;;;;;;3.90;2.47;;;;;;;3.86;94.97;100841.50;5022463;28;20219;-74
2022/02/05 10:46:12;;;;;;;6.17;2.17;;;;;;;3.96;94.71;100841.53;5024175;28;20242;-74
2022/02/05 10:48:42;;;;;;;3.23;2.17;;;;;;;4.16;96.07;100843.31;5020270;28;20222;-74
2022/02/05 10:51:13;;;;;;;3.57;1.90;;;;;;;4.18;92.52;100839.88;5032213;28;20196;-74
2022/02/05 10:53:45;;;;;;;5.00;2.20;;;;;;;4.14;91.97;100847.63;5021885;28;20534;-74
2022/02/05 10:56:16;;;;;;;5.27;1.90;;;;;;;4.08;92.80;100856.22;5028356;28;20216;-75
2022/02/05 10:59:14;;;;;;;2.87;1.73;;;;;;;3.89;92.11;100855.25;5022415;28;20226;-74
2022/02/05 11:07:07;;;;;;;5.73;1.80;;;;;;;3.70;95.31;100851.72;5024259;28;20689;-74
2022/02/05 11:09:37;;;;;;;4.93;1.93;;;;;;;3.67;96.00;100856.84;5025768;28;20220;-73
2022/02/05 11:20:28;;;;;;;3.90;1.57;;;;;;;3.56;98.71;100846.47;5025012;28;20760;-75
2022/02/05 11:23:00;;;;;;;5.30;1.50;;;;;;;3.67;96.82;100851.69;5021896;28;20197;-74
2022/02/05 11:25:33;;;;;;;18.87;2.57;;;;;;;3.78;97.00;100849.16;5024628;28;20203;-74
2022/02/05 11:27:59;;;;;;;6.77;1.87;;;;;;;3.84;97.16;100854.38;5024939;28;20654;-74
2022/02/05 11:30:39;;;;;;;4.40;1.93;;;;;;;3.89;95.11;100860.41;5026018;28;20215;-75
2022/02/05 11:33:19;;;;;;;4.93;2.00;;;;;;;3.93;93.94;100849.25;5020932;28;20488;-75
2022/02/05 11:36:10;;;;;;;4.93;1.87;;;;;;;4.02;92.58;100868.22;5020701;28;20250;-75
2022/02/05 11:38:42;;;;;;;2.67;1.80;;;;;;;4.13;92.14;100851.94;5019961;28;20302;-73
2022/02/05 11:41:25;;;;;;;5.17;2.20;;;;;;;4.19;90.63;100858.84;5020971;28;20796;-73
2022/02/05 11:44:18;;;;;;;6.87;2.47;;;;;;;4.17;85.63;100857.97;5022995;28;20231;-73
2022/02/05 11:47:18;;;;;;;5.80;1.90;;;;;;;4.21;86.77;100859.69;5022551;28;20196;-74
2022/02/05 11:50:18;;;;;;;5.67;1.90;;;;;;;4.18;85.11;100875.16;5018728;28;20233;-73
2022/02/05 11:53:07;;;;;;;7.97;2.40;;;;;;;4.36;87.40;100859.75;5020493;28;20565;-73
2022/02/05 11:55:42;;;;;;;5.60;1.83;;;;;;;4.47;87.07;100858.94;5020645;28;20220;-72
2022/02/05 11:58:13;;;;;;;6.00;2.33;;;;;;;4.58;86.36;100874.44;5021116;28;20195;-74
2022/02/05 12:00:48;;;;;;;7.33;2.13;;;;;;;4.65;85.51;100874.44;5020765;28;20285;-73
2022/02/05 12:03:36;;;;;;;8.47;2.57;;;;;;;4.75;83.08;100888.25;5023641;28;20204;-74
2022/02/05 12:06:08;;;;;;;4.43;1.70;;;;;;;4.94;81.88;100889.13;5020850;28;20602;-74
2022/02/05 12:08:37;;;;;;;8.60;2.03;;;;;;;5.10;81.56;100888.31;5024397;28;20240;-72
2022/02/05 12:11:25;;;;;;;7.73;2.23;;;;;;;5.22;80.01;100899.50;5017880;28;20996;-73
2022/02/05 12:14:09;;;;;;;6.70;2.10;;;;;;;5.31;80.89;100902.06;5019769;28;20196;-74
2022/02/05 12:16:37;;;;;;;6.63;2.03;;;;;;;5.20;79.57;100904.66;5019131;28;20215;-73
2022/02/05 12:19:13;;;;;;;4.53;1.70;;;;;;;5.12;77.94;100899.50;5019634;28;20967;-73
2022/02/05 12:21:56;;;;;;;4.90;2.10;;;;;;;5.23;78.69;100903.81;5020704;28;20282;-73
2022/02/05 12:27:24;;;;;;;4.57;1.60;;;;;;;5.09;78.32;100902.06;5019228;28;20564;-74
2022/02/05 12:29:52;;;;;;;9.27;1.90;;;;;;;5.20;78.77;100912.41;5019808;28;20697;-73
2022/02/05 12:32:19;;;;;;;10.03;3.00;;;;;;;5.31;78.07;100917.59;5018480;28;20208;-74
2022/02/05 12:34:46;;;;;;;5.03;1.93;;;;;;;5.09;77.39;100914.16;5020466;28;20788;-73
2022/02/05 12:37:12;;;;;;;6.43;2.00;;;;;;;4.99;77.87;100909.81;5025910;28;20732;-74
2022/02/05 12:39:39;;;;;;;8.03;1.80;;;;;;;4.92;78.69;100908.94;5018372;28;20980;-73
2022/02/05 12:42:13;;;;;;;7.53;1.97;;;;;;;4.86;79.08;100904.63;5022186;28;20200;-72
2022/02/05 12:44:41;;;;;;;9.37;3.47;;;;;;;4.81;80.53;100901.19;5020179;28;20279;-73
2022/02/05 12:47:16;;;;;;;5.17;2.97;;;;;;;4.79;81.90;100904.63;5019904;28;20705;-73
2022/02/05 12:49:52;;;;;;;5.23;1.93;;;;;;;4.81;80.79;100901.19;5021604;28;20219;-73
2022/02/05 12:52:24;;;;;;;5.97;2.20;;;;;;;4.77;80.46;100902.03;5021762;28;20234;-72
2022/02/05 12:54:56;;;;;;;6.53;1.60;;;;;;;4.86;81.01;100911.53;5033492;28;20754;-71
2022/02/05 12:57:22;;;;;;;4.57;1.60;;;;;;;5.11;80.98;100900.34;5016400;28;20319;-72
2022/02/05 12:59:49;;;;;;;5.40;1.80;;;;;;;5.22;80.23;100904.66;5023531;28;20223;-73
2022/02/05 13:02:18;;;;;;;4.60;2.20;;;;;;;5.16;78.73;100910.69;5019505;28;21740;-73
2022/02/05 13:04:48;;;;;;;3.70;1.40;;;;;;;5.17;78.51;100896.94;5021668;28;20199;-74
2022/02/05 13:07:16;;;;;;;2.50;1.30;;;;;;;5.17;78.28;100904.69;5022162;28;20215;-72
2022/02/05 13:09:48;;;;;;;3.97;1.60;;;;;;;5.29;78.71;100901.22;5020954;28;20216;-72
2022/02/05 13:12:17;;;;;;;3.63;1.63;;;;;;;5.27;75.23;100900.38;5018942;28;20215;-72
2022/02/05 13:14:48;;;;;;;4.63;1.63;;;;;;;5.25;75.82;100899.50;5020843;28;20208;-73
2022/02/05 13:17:37;;;;;;;3.87;1.87;;;;;;;5.26;76.36;100893.50;5033202;28;20664;-74
2022/02/05 13:25:48;;;;;;;3.90;1.57;;;;;;;4.84;76.05;100908.94;5024664;28;20605;-70
2022/02/05 13:34:07;;;;;;;7.40;1.50;;;;;;;4.64;77.91;100908.03;5025304;28;20514;-72
2022/02/05 13:36:40;;;;;;;4.07;1.90;;;;;;;4.65;78.14;100891.69;5024295;28;20840;-71
2022/02/05 13:39:15;;;;;;;6.97;2.07;;;;;;;4.67;77.51;100906.31;5021027;28;20720;-72
2022/02/05 13:41:49;;;;;;;3.00;1.30;;;;;;;4.67;77.41;100905.44;5021093;28;20634;-72
2022/02/05 13:44:19;;;;;;;3.57;1.43;;;;;;;4.65;77.88;100910.63;5025267;28;20255;-73
2022/02/05 13:47:00;;;;;;;7.47;2.37;;;;;;;4.62;78.31;100902.00;5021484;28;20231;-73
2022/02/05 13:49:28;;;;;;;5.00;1.60;;;;;;;4.56;79.12;100910.59;5014475;28;20782;-72